Time;durP1;ratioP1;P1;durP2;ratioP2;P2;SDS_P1;SDS_P2;PMS_P1;PMS_P2;Temp;Humidity;BMP_temperature;BMP_pressure;BME280_temperature;BME280_humidity;BME280_pressure;Samples;Min_cycle;Max_cycle;Signal;HPM_P1;HPM_P2
2021/09/20 00:01:40;;;;;;;1.52;0.65;;;13.50;80.50;;;;;;4864585;29;20060;-78
2021/09/20 00:04:08;;;;;;;2.05;0.80;;;13.50;80.50;;;;;;4842859;29;20100;-78
2021/09/20 00:06:35;;;;;;;1.67;0.70;;;13.50;80.50;;;;;;4854745;29;20053;-77
2021/09/20 00:09:02;;;;;;;1.40;0.75;;;13.50;80.50;;;;;;4881334;29;20121;-78
2021/09/20 00:11:29;;;;;;;2.55;1.15;;;13.40;80.50;;;;;;4853339;29;20049;-78
2021/09/20 00:13:56;;;;;;;2.50;0.65;;;13.50;80.60;;;;;;4877303;29;20052;-78
2021/09/20 00:16:23;;;;;;;1.67;0.70;;;13.40;80.50;;;;;;4855383;29;20140;-77
2021/09/20 00:18:50;;;;;;;1.83;0.65;;;13.40;80.50;;;;;;4879527;29;20132;-77
2021/09/20 00:21:17;;;;;;;2.47;0.98;;;13.40;80.60;;;;;;4863090;29;20045;-77
2021/09/20 00:23:44;;;;;;;1.40;0.60;;;13.40;80.60;;;;;;4848828;29;20127;-77
2021/09/20 00:26:11;;;;;;;2.03;0.80;;;13.30;80.60;;;;;;4865867;29;20076;-77
2021/09/20 00:28:38;;;;;;;1.60;0.70;;;13.30;80.70;;;;;;4878231;29;20052;-77
2021/09/20 00:31:05;;;;;;;1.60;0.50;;;13.30;80.70;;;;;;4864657;29;20049;-77
2021/09/20 00:33:32;;;;;;;1.58;0.70;;;13.30;80.90;;;;;;4856469;29;20557;-78
2021/09/20 00:35:59;;;;;;;2.38;0.80;;;13.20;80.80;;;;;;4886145;29;20057;-77
2021/09/20 00:38:26;;;;;;;2.17;0.75;;;13.20;80.90;;;;;;4860984;29;20141;-77
2021/09/20 00:40:53;;;;;;;1.83;0.73;;;13.20;81.00;;;;;;4848231;29;20040;-78
2021/09/20 00:43:20;;;;;;;1.42;0.65;;;13.20;81.00;;;;;;4861185;29;20517;-78
2021/09/20 00:45:48;;;;;;;2.08;0.93;;;13.10;81.10;;;;;;4860618;29;20049;-77
2021/09/20 00:48:15;;;;;;;2.05;0.60;;;13.10;81.20;;;;;;4863425;29;20068;-77
2021/09/20 00:50:42;;;;;;;2.15;0.88;;;13.00;81.80;;;;;;4876036;29;20072;-78
2021/09/20 00:53:09;;;;;;;1.98;0.85;;;13.00;81.20;;;;;;4872539;29;20128;-78
2021/09/20 00:55:40;;;;;;;1.83;0.75;;;13.00;81.30;;;;;;4847880;29;20401;-78
2021/09/20 00:58:12;;;;;;;1.48;0.73;;;13.00;81.40;;;;;;4878374;29;20044;-77
2021/09/20 01:00:40;;;;;;;2.13;0.85;;;13.00;81.40;;;;;;4874255;29;20041;-77
2021/09/20 01:03:07;;;;;;;2.80;1.30;;;12.90;81.40;;;;;;4863883;29;20051;-78
2021/09/20 01:05:34;;;;;;;2.20;0.80;;;12.90;81.50;;;;;;4863561;29;20430;-77
2021/09/20 01:08:02;;;;;;;2.13;1.00;;;12.80;81.60;;;;;;4860166;29;20052;-77
2021/09/20 01:10:29;;;;;;;1.75;0.70;;;12.80;81.60;;;;;;4863562;29;20127;-77
2021/09/20 01:12:56;;;;;;;2.35;1.00;;;12.80;81.70;;;;;;4857928;29;20068;-77
2021/09/20 01:15:23;;;;;;;1.85;0.85;;;12.80;82.30;;;;;;4879911;29;20045;-77
2021/09/20 01:17:50;;;;;;;2.03;1.13;;;12.80;81.70;;;;;;4850213;29;20104;-78
2021/09/20 01:20:17;;;;;;;2.05;1.00;;;12.70;81.70;;;;;;4862235;29;20466;-78
2021/09/20 01:22:50;;;;;;;1.33;0.75;;;12.80;81.70;;;;;;4879124;29;20136;-77
2021/09/20 01:25:17;;;;;;;1.85;0.85;;;12.80;81.70;;;;;;4870479;29;20037;-78
2021/09/20 01:27:44;;;;;;;2.60;1.05;;;12.70;81.80;;;;;;4864103;29;20044;-77
2021/09/20 01:30:12;;;;;;;2.08;0.85;;;12.70;81.80;;;;;;4853057;29;20082;-77
2021/09/20 01:32:39;;;;;;;3.38;0.90;;;12.60;81.90;;;;;;4863345;29;20124;-77
2021/09/20 01:35:06;;;;;;;2.90;1.13;;;12.60;81.90;;;;;;4864654;29;20093;-77
2021/09/20 01:37:33;;;;;;;2.15;0.90;;;12.60;81.90;;;;;;4870213;29;20497;-77
2021/09/20 01:40:01;;;;;;;3.35;1.23;;;12.60;81.90;;;;;;4863596;29;20037;-77
2021/09/20 01:42:28;;;;;;;2.75;1.02;;;12.60;81.90;;;;;;4877413;29;20506;-77
2021/09/20 01:44:55;;;;;;;3.05;0.88;;;12.60;82.00;;;;;;4873034;29;20057;-78
2021/09/20 01:47:22;;;;;;;2.88;1.30;;;12.50;81.90;;;;;;4856717;29;20128;-77
2021/09/20 01:49:49;;;;;;;2.10;1.00;;;12.50;81.90;;;;;;4847459;29;20410;-77
2021/09/20 01:52:16;;;;;;;1.80;0.95;;;12.50;82.00;;;;;;4873066;29;20063;-77
2021/09/20 01:54:43;;;;;;;2.97;0.90;;;12.50;82.00;;;;;;4847433;29;20144;-77
2021/09/20 01:57:11;;;;;;;1.77;0.80;;;12.50;81.90;;;;;;4864986;29;20101;-77
2021/09/20 01:59:39;;;;;;;1.92;0.80;;;12.50;82.00;;;;;;4838969;29;20152;-77
2021/09/20 02:02:06;;;;;;;2.20;1.15;;;12.40;82.00;;;;;;4877886;29;20037;-78
2021/09/20 02:04:33;;;;;;;2.55;1.25;;;12.40;82.00;;;;;;4877725;29;20049;-77
2021/09/20 02:07:00;;;;;;;2.42;1.08;;;12.40;82.10;;;;;;4851393;29;20041;-77
2021/09/20 02:09:27;;;;;;;1.48;0.70;;;12.40;82.10;;;;;;4839774;29;20131;-78
2021/09/20 02:11:54;;;;;;;1.45;0.90;;;12.40;82.10;;;;;;4878868;29;20109;-77
2021/09/20 02:14:21;;;;;;;2.10;1.00;;;12.40;82.00;;;;;;4861840;29;20131;-77
2021/09/20 02:16:48;;;;;;;1.40;0.60;;;12.40;82.00;;;;;;4835226;29;20080;-77
2021/09/20 02:19:16;;;;;;;1.65;0.52;;;12.30;82.00;;;;;;4847015;29;20045;-78
2021/09/20 02:21:43;;;;;;;1.70;0.63;;;12.30;81.90;;;;;;4846379;29;20407;-77
2021/09/20 02:24:10;;;;;;;1.83;1.10;;;12.30;82.00;;;;;;4858996;29;20090;-77
2021/09/20 02:26:37;;;;;;;1.48;0.77;;;12.30;82.00;;;;;;4845971;29;20037;-77
2021/09/20 02:29:06;;;;;;;1.90;0.80;;;12.30;82.00;;;;;;4877938;29;20114;-77
2021/09/20 02:31:33;;;;;;;1.42;0.70;;;12.30;82.00;;;;;;4875181;29;20049;-78
2021/09/20 02:34:00;;;;;;;1.38;0.60;;;12.20;81.90;;;;;;4846575;29;20045;-78
2021/09/20 02:36:27;;;;;;;1.50;0.60;;;12.30;82.10;;;;;;4874759;29;20053;-78
2021/09/20 02:38:54;;;;;;;1.55;0.60;;;12.20;82.00;;;;;;4877597;29;20558;-78
2021/09/20 02:41:21;;;;;;;1.38;0.52;;;12.20;82.00;;;;;;4862170;29;20470;-78
2021/09/20 02:43:48;;;;;;;1.65;0.77;;;12.20;82.00;;;;;;4847080;29;20041;-78
2021/09/20 02:46:15;;;;;;;1.75;0.82;;;12.20;82.00;;;;;;4862103;29;20478;-78
2021/09/20 02:48:43;;;;;;;1.63;0.82;;;12.20;81.90;;;;;;4846674;29;20060;-78
2021/09/20 02:51:10;;;;;;;1.45;0.70;;;12.20;82.00;;;;;;4884867;29;20061;-78
2021/09/20 02:53:37;;;;;;;2.00;1.00;;;12.20;82.00;;;;;;4847093;29;20363;-78
2021/09/20 02:56:06;;;;;;;2.20;0.82;;;12.10;82.00;;;;;;4877669;29;20120;-78
2021/09/20 02:58:33;;;;;;;2.28;0.90;;;12.10;82.00;;;;;;4858865;29;20050;-77
2021/09/20 03:00:59;;;;;;;1.52;0.70;;;12.10;82.10;;;;;;4865834;29;20049;-77
2021/09/20 03:03:27;;;;;;;1.48;0.63;;;12.10;82.80;;;;;;4874475;29;20500;-77
2021/09/20 03:05:54;;;;;;;2.08;0.70;;;12.00;82.20;;;;;;4877642;29;20056;-77
2021/09/20 03:08:21;;;;;;;1.58;0.68;;;12.00;82.30;;;;;;4860462;29;20484;-77
2021/09/20 03:10:48;;;;;;;1.67;0.70;;;12.00;82.40;;;;;;4880242;29;20089;-78
2021/09/20 03:13:15;;;;;;;2.60;0.70;;;12.00;82.40;;;;;;4864911;29;20151;-77
2021/09/20 03:15:42;;;;;;;1.70;0.75;;;11.90;82.50;;;;;;4862751;29;20121;-77
2021/09/20 03:18:09;;;;;;;1.27;0.52;;;11.90;82.50;;;;;;4855113;29;20132;-77
2021/09/20 03:20:36;;;;;;;1.80;0.60;;;11.80;82.60;;;;;;4881158;29;20068;-77
2021/09/20 03:23:03;;;;;;;1.13;0.43;;;11.80;82.70;;;;;;4862586;29;20089;-77
2021/09/20 03:25:30;;;;;;;1.90;0.70;;;11.80;82.80;;;;;;4850249;29;20072;-77
2021/09/20 03:27:57;;;;;;;1.02;0.43;;;11.80;82.80;;;;;;4882167;29;20040;-77
2021/09/20 03:30:25;;;;;;;1.08;0.50;;;11.70;82.90;;;;;;4880758;29;20055;-77
2021/09/20 03:32:52;;;;;;;1.70;0.80;;;11.70;82.90;;;;;;4881146;29;20044;-77
2021/09/20 03:35:19;;;;;;;1.45;0.57;;;11.70;82.80;;;;;;4880804;29;20081;-77
2021/09/20 03:37:47;;;;;;;1.75;0.70;;;11.70;82.80;;;;;;4865557;29;20069;-77
2021/09/20 03:40:17;;;;;;;2.25;0.68;;;11.70;82.70;;;;;;4880799;29;20543;-77
2021/09/20 03:42:44;;;;;;;1.13;0.57;;;11.70;82.70;;;;;;4864869;29;20128;-77
2021/09/20 03:45:12;;;;;;;1.73;0.60;;;11.70;82.70;;;;;;4865137;29;20506;-78
2021/09/20 03:47:39;;;;;;;1.70;0.65;;;11.70;82.60;;;;;;4881605;29;20041;-77
2021/09/20 03:50:10;;;;;;;1.30;0.68;;;11.70;82.60;;;;;;4848479;29;20053;-77
2021/09/20 03:52:38;;;;;;;1.45;0.63;;;11.70;82.60;;;;;;4860967;29;20065;-78
2021/09/20 03:55:05;;;;;;;2.35;0.65;;;11.80;82.70;;;;;;4846724;29;20140;-77
2021/09/20 03:57:32;;;;;;;1.60;0.68;;;11.70;82.60;;;;;;4847900;29;20057;-77
2021/09/20 04:00:00;;;;;;;1.58;0.70;;;11.70;82.60;;;;;;4881295;29;20553;-77
2021/09/20 04:02:27;;;;;;;2.30;0.75;;;11.70;82.60;;;;;;4849356;29;20482;-77
2021/09/20 04:04:55;;;;;;;1.55;0.65;;;11.70;82.70;;;;;;4864798;29;20522;-78
2021/09/20 04:07:21;;;;;;;2.00;0.65;;;11.60;82.70;;;;;;4854899;29;20050;-77
2021/09/20 04:09:48;;;;;;;1.00;0.50;;;11.60;82.70;;;;;;4877901;29;20041;-77
2021/09/20 04:12:15;;;;;;;1.90;0.80;;;11.60;82.70;;;;;;4881280;29;20053;-77
2021/09/20 04:14:42;;;;;;;1.83;0.80;;;11.60;82.70;;;;;;4864638;29;20867;-78
2021/09/20 04:17:09;;;;;;;1.52;0.60;;;11.60;82.70;;;;;;4849294;29;20053;-77
2021/09/20 04:19:36;;;;;;;1.77;0.77;;;11.60;82.60;;;;;;4864594;29;20076;-77
2021/09/20 04:22:04;;;;;;;1.40;0.57;;;11.60;82.60;;;;;;4875752;29;20106;-77
2021/09/20 04:24:31;;;;;;;1.75;0.55;;;11.60;82.60;;;;;;4866790;29;20497;-77
2021/09/20 04:26:58;;;;;;;1.48;0.70;;;11.60;82.60;;;;;;4859669;29;20116;-77
2021/09/20 04:29:25;;;;;;;1.77;0.82;;;11.60;82.60;;;;;;4863968;29;20140;-77
2021/09/20 04:31:52;;;;;;;1.90;0.65;;;11.60;82.70;;;;;;4880635;29;20509;-78
2021/09/20 04:34:19;;;;;;;2.40;0.55;;;11.60;82.70;;;;;;4834195;29;20127;-78
2021/09/20 04:36:46;;;;;;;2.05;1.00;;;11.60;82.70;;;;;;4864432;29;20048;-77
2021/09/20 04:39:13;;;;;;;1.65;0.70;;;11.60;82.70;;;;;;4848488;29;20431;-77
2021/09/20 04:41:41;;;;;;;1.75;0.60;;;11.60;82.70;;;;;;4854137;29;20041;-77
2021/09/20 04:44:08;;;;;;;1.95;0.70;;;11.60;82.70;;;;;;4846666;29;20033;-77
2021/09/20 04:46:36;;;;;;;2.38;0.80;;;11.60;82.70;;;;;;4880751;29;20053;-78
2021/09/20 04:49:04;;;;;;;2.90;0.88;;;11.60;82.60;;;;;;4868271;29;20497;-78
2021/09/20 04:51:31;;;;;;;1.58;0.90;;;11.60;82.60;;;;;;4871880;29;20506;-78
2021/09/20 04:53:58;;;;;;;1.50;0.60;;;11.60;82.60;;;;;;4856547;29;20044;-78
2021/09/20 04:56:26;;;;;;;2.42;0.80;;;11.60;82.50;;;;;;4848575;29;20454;-77
2021/09/20 04:58:53;;;;;;;2.95;1.02;;;11.60;82.60;;;;;;4862027;29;20097;-77
2021/09/20 05:01:20;;;;;;;1.85;0.90;;;11.60;82.50;;;;;;4881070;29;20041;-78
2021/09/20 05:03:47;;;;;;;2.03;0.73;;;11.60;82.50;;;;;;4863935;29;20135;-78
2021/09/20 05:06:15;;;;;;;1.67;0.60;;;11.60;82.50;;;;;;4878244;29;20081;-77
2021/09/20 05:08:41;;;;;;;1.42;0.65;;;11.60;82.50;;;;;;4842657;29;20120;-77
2021/09/20 05:11:08;;;;;;;1.92;0.70;;;11.60;82.60;;;;;;4863661;29;20165;-77
2021/09/20 05:13:36;;;;;;;2.17;0.90;;;11.60;82.60;;;;;;4863749;29;20045;-77
2021/09/20 05:16:03;;;;;;;2.30;0.85;;;11.50;82.70;;;;;;4880341;29;20069;-77
2021/09/20 05:18:30;;;;;;;2.88;1.10;;;11.60;82.70;;;;;;4842487;29;20049;-77
2021/09/20 05:20:57;;;;;;;2.28;0.77;;;11.60;82.80;;;;;;4868744;29;20049;-78
2021/09/20 05:23:24;;;;;;;2.63;0.80;;;11.60;82.70;;;;;;4878773;29;20524;-78
2021/09/20 05:25:51;;;;;;;2.22;1.10;;;11.60;82.70;;;;;;4879466;29;20503;-78
2021/09/20 05:28:18;;;;;;;2.90;1.10;;;11.60;82.70;;;;;;4867347;29;20045;-77
2021/09/20 05:30:45;;;;;;;2.28;1.00;;;11.60;82.70;;;;;;4853596;29;20041;-78
2021/09/20 05:33:14;;;;;;;2.78;1.02;;;11.60;82.70;;;;;;4879627;29;20108;-78
2021/09/20 05:35:41;;;;;;;2.65;1.05;;;11.60;82.60;;;;;;4861120;29;20075;-78
2021/09/20 05:38:08;;;;;;;2.15;1.00;;;11.60;82.70;;;;;;4856300;29;20405;-78
2021/09/20 05:40:35;;;;;;;2.75;1.10;;;11.60;82.60;;;;;;4863082;29;20465;-77
2021/09/20 05:43:02;;;;;;;2.75;1.00;;;11.60;82.60;;;;;;4860870;29;20486;-77
2021/09/20 05:45:29;;;;;;;2.90;1.45;;;11.60;82.70;;;;;;4849963;29;20159;-77
2021/09/20 05:48:00;;;;;;;2.00;0.98;;;11.60;82.70;;;;;;4865504;29;20041;-77
2021/09/20 05:50:27;;;;;;;2.03;0.98;;;11.60;82.70;;;;;;4862692;29;20381;-77
2021/09/20 05:52:55;;;;;;;1.92;1.10;;;11.60;82.70;;;;;;4872178;29;20621;-77
2021/09/20 05:55:23;;;;;;;2.25;1.13;;;11.70;82.70;;;;;;4879086;29;20562;-83
2021/09/20 05:57:50;;;;;;;2.58;1.05;;;11.70;82.70;;;;;;4847762;29;20044;-83
2021/09/20 06:00:18;;;;;;;2.65;1.17;;;11.70;82.70;;;;;;4851123;29;20144;-79
2021/09/20 06:02:46;;;;;;;3.25;1.27;;;11.70;82.60;;;;;;4879373;29;20056;-77
2021/09/20 06:05:14;;;;;;;2.95;1.27;;;11.70;82.60;;;;;;4862756;29;20101;-77
2021/09/20 06:07:42;;;;;;;2.60;1.13;;;11.80;82.60;;;;;;4880749;29;20097;-76
2021/09/20 06:10:10;;;;;;;3.55;1.50;;;11.80;82.50;;;;;;4877027;29;20120;-78
2021/09/20 06:12:38;;;;;;;2.95;1.10;;;11.90;82.50;;;;;;4878938;29;20052;-80
2021/09/20 06:15:07;;;;;;;2.42;1.00;;;11.90;82.30;;;;;;4862791;29;20448;-79
2021/09/20 06:17:34;;;;;;;2.20;0.90;;;12.00;82.30;;;;;;4847031;29;20053;-80
2021/09/20 06:20:02;;;;;;;2.83;1.27;;;12.00;82.10;;;;;;4846912;29;20075;-78
2021/09/20 06:22:29;;;;;;;2.60;1.10;;;12.10;82.00;;;;;;4862532;29;20077;-78
2021/09/20 06:24:58;;;;;;;3.03;1.42;;;12.10;82.00;;;;;;4861774;29;20078;-78
2021/09/20 06:27:27;;;;;;;3.28;1.00;;;12.10;81.80;;;;;;4877715;29;20589;-78
2021/09/20 06:29:54;;;;;;;2.75;1.20;;;12.20;81.80;;;;;;4861972;29;20056;-78
2021/09/20 06:32:21;;;;;;;3.65;1.20;;;12.20;81.70;;;;;;4862145;29;20080;-78
2021/09/20 06:34:48;;;;;;;2.95;1.60;;;12.30;82.10;;;;;;4862427;29;20069;-78
2021/09/20 06:37:15;;;;;;;2.13;1.00;;;12.40;81.40;;;;;;4831650;29;20060;-78
2021/09/20 06:39:42;;;;;;;2.80;1.10;;;12.50;81.30;;;;;;4860645;29;20132;-78
2021/09/20 06:42:09;;;;;;;2.53;1.23;;;12.50;81.20;;;;;;4846459;29;20045;-79
2021/09/20 06:44:36;;;;;;;2.38;1.10;;;12.60;81.10;;;;;;4860968;29;20045;-81
2021/09/20 06:47:04;;;;;;;2.67;1.20;;;12.60;80.90;;;;;;4852225;29;20045;-79
2021/09/20 06:49:32;;;;;;;1.98;0.93;;;12.70;80.80;;;;;;4881291;29;20502;-79
2021/09/20 06:51:59;;;;;;;1.95;0.90;;;12.80;80.70;;;;;;4881168;29;20080;-79
2021/09/20 06:54:26;;;;;;;2.70;1.42;;;12.80;80.60;;;;;;4850645;29;20049;-79
2021/09/20 06:56:53;;;;;;;3.40;1.50;;;12.90;80.40;;;;;;4850457;29;20049;-80
2021/09/20 06:59:20;;;;;;;2.95;1.45;;;12.90;80.20;;;;;;4844075;29;20136;-80
2021/09/20 07:01:48;;;;;;;2.83;1.35;;;13.00;80.20;;;;;;4827330;29;20077;-78
2021/09/20 07:04:15;;;;;;;3.85;2.00;;;13.00;80.00;;;;;;4858382;29;20047;-82
2021/09/20 07:06:45;;;;;;;4.03;1.63;;;13.10;79.90;;;;;;4838194;29;20504;-81
2021/09/20 07:09:15;;;;;;;3.15;1.60;;;13.10;80.30;;;;;;4852802;29;20037;-78
2021/09/20 07:11:42;;;;;;;3.35;1.35;;;13.20;79.60;;;;;;4875448;29;20037;-78
2021/09/20 07:14:10;;;;;;;3.45;1.25;;;13.30;79.60;;;;;;4866689;29;20490;-79
2021/09/20 07:16:38;;;;;;;3.65;1.65;;;13.30;79.40;;;;;;4851311;29;20033;-86
2021/09/20 07:19:05;;;;;;;4.75;1.83;;;13.40;79.20;;;;;;4875540;29;20061;-84
2021/09/20 07:21:32;;;;;;;3.38;1.60;;;13.40;79.10;;;;;;4855099;29;20049;-81
2021/09/20 07:24:00;;;;;;;4.32;2.30;;;13.50;79.00;;;;;;4865092;29;20132;-82
2021/09/20 07:26:29;;;;;;;4.32;2.00;;;13.50;78.80;;;;;;4865553;29;20080;-82
2021/09/20 07:28:57;;;;;;;3.28;1.73;;;13.50;78.70;;;;;;4866146;29;20049;-84
2021/09/20 07:31:25;;;;;;;3.20;1.77;;;13.60;78.70;;;;;;4881778;29;20049;-86
2021/09/20 07:33:52;;;;;;;3.42;1.75;;;13.60;78.50;;;;;;4850194;29;20116;-85
2021/09/20 07:36:20;;;;;;;3.50;1.65;;;13.60;78.50;;;;;;4850882;29;20049;-84
2021/09/20 07:38:47;;;;;;;3.45;1.75;;;13.70;78.40;;;;;;4848810;29;20794;-80
2021/09/20 07:41:14;;;;;;;3.70;2.20;;;13.70;78.20;;;;;;4834535;29;20048;-81
2021/09/20 07:43:45;;;;;;;3.72;1.83;;;13.70;78.10;;;;;;4864574;29;20045;-83
2021/09/20 07:46:19;;;;;;;3.33;1.80;;;13.70;78.10;;;;;;4847843;29;20455;-81
2021/09/20 07:48:46;;;;;;;3.40;1.77;;;13.80;78.10;;;;;;4880740;29;20089;-79
2021/09/20 07:51:13;;;;;;;4.03;2.00;;;13.80;78.00;;;;;;4849117;29;20139;-79
2021/09/20 07:53:41;;;;;;;4.45;1.90;;;13.80;77.90;;;;;;4864721;29;20101;-79
2021/09/20 07:56:08;;;;;;;2.85;1.60;;;13.90;77.80;;;;;;4880802;29;20074;-79
2021/09/20 07:58:35;;;;;;;3.97;1.98;;;13.90;77.70;;;;;;4864319;29;20069;-79
2021/09/20 08:01:02;;;;;;;3.50;2.08;;;14.00;77.70;;;;;;4859843;29;20080;-79
2021/09/20 08:03:29;;;;;;;3.08;1.73;;;14.00;77.60;;;;;;4863773;29;20490;-76
2021/09/20 08:05:57;;;;;;;4.03;1.92;;;14.10;77.50;;;;;;4878862;29;20386;-76
2021/09/20 08:08:24;;;;;;;4.00;1.98;;;14.20;77.30;;;;;;4864046;29;20096;-82
2021/09/20 08:10:51;;;;;;;3.47;1.85;;;14.20;77.70;;;;;;4851090;29;20077;-82
2021/09/20 08:13:19;;;;;;;4.03;2.03;;;14.30;77.10;;;;;;4865823;29;20061;-81
2021/09/20 08:15:46;;;;;;;3.22;1.83;;;14.30;76.90;;;;;;4878408;29;20140;-81
2021/09/20 08:18:14;;;;;;;4.18;2.13;;;14.40;76.80;;;;;;4846751;29;20389;-80
2021/09/20 08:20:43;;;;;;;3.70;2.15;;;14.40;76.60;;;;;;4846675;29;20041;-80
2021/09/20 08:23:11;;;;;;;4.85;2.78;;;14.50;76.60;;;;;;4877917;29;20089;-80
2021/09/20 08:25:38;;;;;;;4.47;2.25;;;14.50;76.40;;;;;;4848404;29;20542;-82
2021/09/20 08:28:05;;;;;;;4.90;2.50;;;14.50;76.20;;;;;;4858027;29;20052;-82
2021/09/20 08:30:32;;;;;;;4.72;2.58;;;14.60;76.70;;;;;;4846867;29;20132;-81
2021/09/20 08:33:00;;;;;;;4.07;2.10;;;14.60;76.00;;;;;;4876739;29;20045;-82
2021/09/20 08:35:27;;;;;;;4.05;2.63;;;14.60;76.00;;;;;;4878875;29;20470;-81
2021/09/20 08:37:54;;;;;;;3.45;2.15;;;14.60;75.90;;;;;;4832946;29;20072;-82
2021/09/20 08:40:21;;;;;;;3.97;2.13;;;14.60;75.80;;;;;;4862151;29;20148;-81
2021/09/20 08:42:49;;;;;;;4.07;2.15;;;14.70;75.90;;;;;;4874070;29;20550;-81
2021/09/20 08:45:18;;;;;;;4.13;2.13;;;14.70;75.60;;;;;;4880376;29;20041;-81
2021/09/20 08:47:48;;;;;;;6.80;2.83;;;14.70;75.50;;;;;;4847696;29;20140;-81
2021/09/20 08:50:18;;;;;;;3.30;2.05;;;14.70;76.00;;;;;;4868906;29;20132;-82
2021/09/20 08:52:46;;;;;;;4.68;2.70;;;14.70;75.10;;;;;;4874413;29;20057;-77
2021/09/20 08:55:15;;;;;;;4.50;1.98;;;14.70;75.00;;;;;;4860409;29;20041;-77
2021/09/20 08:57:42;;;;;;;4.28;1.67;;;14.80;75.00;;;;;;4849633;29;20110;-76
2021/09/20 09:00:11;;;;;;;4.00;2.15;;;14.80;75.00;;;;;;4841772;29;20042;-76
2021/09/20 09:02:38;;;;;;;4.40;2.47;;;14.80;74.70;;;;;;4841450;29;20033;-77
2021/09/20 09:05:22;;;;;;;5.53;2.63;;;14.90;75.10;;;;;;4828867;29;20046;-77
2021/09/20 09:07:53;;;;;;;3.90;2.17;;;14.90;74.10;;;;;;4827980;29;20414;-76
2021/09/20 09:10:23;;;;;;;3.40;1.73;;;14.90;74.10;;;;;;4860512;29;20053;-76
2021/09/20 09:12:52;;;;;;;3.45;2.10;;;15.00;74.10;;;;;;4858213;29;20053;-78
2021/09/20 09:15:22;;;;;;;3.90;2.25;;;15.00;74.00;;;;;;4844488;29;20096;-79
2021/09/20 09:17:55;;;;;;;4.20;1.98;;;15.00;73.90;;;;;;4843479;29;20049;-79
2021/09/20 09:20:32;;;;;;;3.65;1.85;;;15.10;73.80;;;;;;4843445;29;20518;-79
2021/09/20 09:23:04;;;;;;;2.90;1.73;;;15.10;73.60;;;;;;4858379;29;20053;-79
2021/09/20 09:25:43;;;;;;;3.85;1.83;;;15.10;73.60;;;;;;4843334;29;20046;-76
2021/09/20 09:28:20;;;;;;;4.07;1.92;;;15.20;73.50;;;;;;4857721;29;20049;-77
2021/09/20 09:30:58;;;;;;;3.60;2.00;;;15.20;73.20;;;;;;4858444;29;20068;-77
2021/09/20 09:33:34;;;;;;;3.05;1.15;;;15.20;73.20;;;;;;4867787;29;20053;-77
2021/09/20 09:36:02;;;;;;;3.75;1.92;;;15.30;73.20;;;;;;4858091;29;20038;-79
2021/09/20 09:38:29;;;;;;;3.08;1.60;;;15.20;73.10;;;;;;4860585;29;20064;-79
2021/09/20 09:40:58;;;;;;;3.00;1.60;;;15.30;73.00;;;;;;4844035;29;20152;-79
2021/09/20 09:43:37;;;;;;;2.65;1.30;;;15.40;72.80;;;;;;4828641;29;20102;-79
2021/09/20 09:46:18;;;;;;;3.25;1.63;;;15.40;72.70;;;;;;4860185;29;20069;-78
2021/09/20 09:48:45;;;;;;;3.30;1.48;;;15.50;72.50;;;;;;4829229;29;20366;-81
2021/09/20 09:51:12;;;;;;;5.03;1.88;;;15.50;72.30;;;;;;4824830;29;20463;-81
2021/09/20 09:53:45;;;;;;;3.35;1.50;;;15.50;72.10;;;;;;4819201;29;20042;-75
2021/09/20 09:56:15;;;;;;;;;;;15.60;72.00;;;;;;4841398;29;20134;-81
2021/09/20 09:58:58;;;;;;;3.05;1.70;;;15.60;72.20;;;;;;4837925;29;20003;-77
2021/09/20 10:01:37;;;;;;;3.65;1.80;;;15.70;71.80;;;;;;4841289;29;20050;-76
2021/09/20 10:04:23;;;;;;;2.95;1.85;;;15.70;71.40;;;;;;4838640;29;20042;-83
2021/09/20 10:06:53;;;;;;;4.30;2.05;;;15.70;71.40;;;;;;4829024;29;20046;-81
2021/09/20 10:09:24;;;;;;;4.72;2.10;;;15.80;71.40;;;;;;4839768;29;20459;-85
2021/09/20 10:11:54;;;;;;;2.90;1.60;;;15.80;71.20;;;;;;4809833;29;20064;-83
2021/09/20 10:14:22;;;;;;;4.43;1.90;;;15.90;71.00;;;;;;4821744;29;20052;-82
2021/09/20 10:16:53;;;;;;;4.38;2.03;;;15.90;70.70;;;;;;4823838;29;20473;-80
2021/09/20 10:19:20;;;;;;;3.83;2.25;;;16.00;70.50;;;;;;4823019;29;20058;-81
2021/09/20 10:21:48;;;;;;;4.13;1.73;;;16.00;70.30;;;;;;4840474;29;20069;-81
2021/09/20 10:24:16;;;;;;;3.25;1.98;;;16.20;70.20;;;;;;4839305;29;20088;-81
2021/09/20 10:26:44;;;;;;;5.28;2.17;;;16.30;69.50;;;;;;4821672;29;20056;-82
2021/09/20 10:29:14;;;;;;;3.70;2.50;;;16.40;69.00;;;;;;4840052;29;20495;-82
2021/09/20 10:31:43;;;;;;;3.83;1.98;;;16.50;69.50;;;;;;4841606;29;20049;-80
2021/09/20 10:34:20;;;;;;;3.55;2.25;;;16.60;68.90;;;;;;4839535;29;20038;-80
2021/09/20 10:36:48;;;;;;;4.10;2.28;;;16.60;68.50;;;;;;4836941;29;20049;-82
2021/09/20 10:39:15;;;;;;;3.65;1.98;;;16.70;68.70;;;;;;4822310;29;20073;-82
2021/09/20 10:41:42;;;;;;;4.45;2.10;;;16.80;68.40;;;;;;4818927;29;20111;-76
2021/09/20 10:44:12;;;;;;;3.85;1.80;;;16.90;68.20;;;;;;4836884;29;20054;-75
2021/09/20 10:46:41;;;;;;;3.65;1.88;;;16.90;68.10;;;;;;4836390;29;20460;-75
2021/09/20 10:49:21;;;;;;;3.85;2.05;;;17.00;68.00;;;;;;4837549;29;20042;-76
2021/09/20 10:52:06;;;;;;;3.30;1.83;;;17.00;67.80;;;;;;4847576;29;20061;-75
2021/09/20 10:54:33;;;;;;;3.92;2.25;;;17.00;67.80;;;;;;4854642;29;20041;-75
2021/09/20 10:57:19;;;;;;;3.17;1.88;;;16.90;68.00;;;;;;4857380;29;20049;-75
2021/09/20 10:59:47;;;;;;;2.70;1.40;;;16.90;67.80;;;;;;4871549;29;20118;-76
2021/09/20 11:02:22;;;;;;;4.15;1.55;;;16.80;67.80;;;;;;4870555;29;20152;-75
2021/09/20 11:05:08;;;;;;;3.30;1.60;;;16.70;67.80;;;;;;4873858;29;20056;-76
2021/09/20 11:07:49;;;;;;;3.53;2.00;;;16.80;67.80;;;;;;4860076;29;20056;-76
2021/09/20 11:10:27;;;;;;;3.72;1.90;;;16.80;67.60;;;;;;4873074;29;20471;-76
2021/09/20 11:12:59;;;;;;;4.55;2.45;;;16.90;67.30;;;;;;4875591;29;20055;-76
2021/09/20 11:15:38;;;;;;;3.90;2.08;;;16.90;67.10;;;;;;4875614;29;20068;-76
2021/09/20 11:18:05;;;;;;;3.35;1.80;;;17.00;67.10;;;;;;4875113;29;20638;-77
2021/09/20 11:20:41;;;;;;;4.18;2.03;;;16.90;67.00;;;;;;4875415;29;20140;-81
2021/09/20 11:23:38;;;;;;;2.70;1.30;;;16.90;66.90;;;;;;4859094;29;20105;-81
2021/09/20 11:26:08;;;;;;;3.80;1.80;;;16.90;66.90;;;;;;4856735;29;20844;-80
2021/09/20 11:28:37;;;;;;;3.45;1.92;;;17.00;66.90;;;;;;4875439;29;20055;-79
2021/09/20 11:31:05;;;;;;;3.20;1.50;;;17.10;66.60;;;;;;4875432;29;20069;-80
2021/09/20 11:33:34;;;;;;;3.05;1.73;;;17.30;66.40;;;;;;4878470;29;20049;-82
2021/09/20 11:36:36;;;;;;;3.85;2.03;;;17.50;66.20;;;;;;4878162;29;20158;-80
2021/09/20 11:39:18;;;;;;;3.78;1.67;;;17.60;66.50;;;;;;4847277;29;20044;-84
2021/09/20 11:41:54;;;;;;;3.67;1.73;;;17.60;65.90;;;;;;4866219;29;20045;-86
2021/09/20 11:44:32;;;;;;;3.40;1.75;;;17.70;65.80;;;;;;4877675;29;20048;-86
2021/09/20 11:47:09;;;;;;;3.05;1.60;;;17.80;65.40;;;;;;4877420;29;20097;-82
2021/09/20 11:49:36;;;;;;;3.40;1.55;;;17.90;65.60;;;;;;4832835;29;20045;-83
2021/09/20 11:52:03;;;;;;;3.80;1.45;;;17.90;65.30;;;;;;4866823;29;20108;-82
2021/09/20 11:54:37;;;;;;;3.30;1.60;;;18.00;65.30;;;;;;4844738;29;20053;-84
2021/09/20 11:57:15;;;;;;;2.80;1.48;;;18.10;64.90;;;;;;4863175;29;20459;-82
2021/09/20 11:59:42;;;;;;;3.38;1.65;;;18.10;64.90;;;;;;4877647;29;20052;-82
2021/09/20 12:02:49;;;;;;;2.40;1.60;;;18.10;65.10;;;;;;4844978;29;20048;-80
2021/09/20 12:05:21;;;;;;;3.53;1.92;;;18.00;64.80;;;;;;4853227;29;20049;-76
2021/09/20 12:07:51;;;;;;;3.10;1.52;;;17.90;64.80;;;;;;4877880;29;20037;-78
2021/09/20 12:10:28;;;;;;;4.45;1.80;;;17.90;65.00;;;;;;4877132;29;20048;-78
2021/09/20 12:13:05;;;;;;;3.15;1.88;;;17.80;65.10;;;;;;4875304;29;20170;-78
2021/09/20 12:15:38;;;;;;;3.35;2.08;;;17.90;65.20;;;;;;4874913;29;20052;-78
2021/09/20 12:18:13;;;;;;;4.00;2.22;;;17.90;64.90;;;;;;4877358;29;20128;-77
2021/09/20 12:20:54;;;;;;;3.72;2.35;;;17.90;64.80;;;;;;4875225;29;20132;-78
2021/09/20 12:23:44;;;;;;;3.00;1.80;;;17.90;64.50;;;;;;4848806;29;20048;-77
2021/09/20 12:26:20;;;;;;;2.20;1.38;;;17.90;64.60;;;;;;4878272;29;20699;-77
2021/09/20 12:29:05;;;;;;;2.78;1.50;;;18.00;64.80;;;;;;4877800;29;20152;-77
2021/09/20 12:31:36;;;;;;;4.50;1.65;;;18.20;64.40;;;;;;4877614;29;20502;-77
2021/09/20 12:34:05;;;;;;;2.50;1.40;;;18.30;64.30;;;;;;4877519;29;20045;-77
2021/09/20 12:36:35;;;;;;;2.83;1.40;;;18.40;64.10;;;;;;4871719;29;20121;-75
2021/09/20 12:39:11;;;;;;;3.40;2.30;;;18.50;64.00;;;;;;4873761;29;20121;-76
2021/09/20 12:42:03;;;;;;;3.15;1.60;;;18.40;63.80;;;;;;4856797;29;20510;-75
2021/09/20 12:44:48;;;;;;;3.30;2.10;;;18.40;63.80;;;;;;4854552;29;20359;-76
2021/09/20 12:47:27;;;;;;;5.30;2.20;;;18.30;63.80;;;;;;4858999;29;20079;-75
2021/09/20 12:50:07;;;;;;;3.45;1.70;;;18.20;63.90;;;;;;4844197;29;20454;-75
2021/09/20 12:52:39;;;;;;;2.88;1.70;;;18.20;63.60;;;;;;4866651;29;20064;-75
2021/09/20 12:55:13;;;;;;;2.78;1.67;;;18.00;63.80;;;;;;4868971;29;20065;-76
2021/09/20 12:57:52;;;;;;;3.45;1.98;;;17.90;64.00;;;;;;4875327;29;20049;-75
2021/09/20 13:00:28;;;;;;;2.78;1.58;;;17.90;63.90;;;;;;4875294;29;20106;-76